FDX606 WIII-WSSS
Flight info
| Callsign | FDX606 |
|---|---|
| Flight time | 1h 19m |
| Altitude | 34000 |
| Route | DOLTA A585 PLB G579 REPOV REPOV2B |
| Aircraft | B77L/H-SDE1E2E3FGHIJ2J3J4J5M1RWXY/LB1D1 |
Departure
| Time | 2026-05-07 19:49 |
|---|---|
| Airport | Soekarno-Hatta International Airport (WIII) |
Arrival
| Time | 2026-05-07 21:08 |
|---|---|
| Airport | Singapore Changi Airport (WSSS) |
| Time | Latitude | Longitude | Altitude | Speed | Heading |
|---|---|---|---|---|---|
| 2026-05-07 19:29 | -6.13022 | 106.65891 | 48 ft | 0 kts | 338° |
| 2026-05-07 19:35 | -6.13032 | 106.65894 | 48 ft | 2 kts | 338° |
| 2026-05-07 19:35 | -6.13047 | 106.65900 | 48 ft | 2 kts | 339° |
| 2026-05-07 19:35 | -6.13062 | 106.65904 | 48 ft | 2 kts | 359° |
| 2026-05-07 19:35 | -6.13078 | 106.65902 | 48 ft | 2 kts | 25° |
| 2026-05-07 19:36 | -6.13091 | 106.65892 | 48 ft | 2 kts | 49° |
| 2026-05-07 19:36 | -6.13095 | 106.65887 | 48 ft | 0 kts | 57° |
| 2026-05-07 19:39 | -6.13088 | 106.65899 | 48 ft | 4 kts | 64° |
| 2026-05-07 19:39 | -6.13073 | 106.65940 | 48 ft | 8 kts | 71° |
| 2026-05-07 19:40 | -6.13055 | 106.65994 | 48 ft | 8 kts | 72° |
| 2026-05-07 19:40 | -6.13039 | 106.66045 | 48 ft | 7 kts | 72° |
| 2026-05-07 19:40 | -6.13022 | 106.66097 | 48 ft | 9 kts | 70° |
| 2026-05-07 19:40 | -6.13004 | 106.66154 | 48 ft | 8 kts | 96° |
| 2026-05-07 19:41 | -6.13047 | 106.66184 | 48 ft | 8 kts | 161° |
| 2026-05-07 19:41 | -6.13096 | 106.66202 | 48 ft | 7 kts | 159° |
| 2026-05-07 19:41 | -6.13147 | 106.66222 | 48 ft | 9 kts | 159° |
| 2026-05-07 19:41 | -6.13215 | 106.66249 | 48 ft | 12 kts | 159° |
| 2026-05-07 19:42 | -6.13272 | 106.66271 | 48 ft | 8 kts | 156° |
| 2026-05-07 19:42 | -6.13291 | 106.66316 | 48 ft | 9 kts | 64° |
| 2026-05-07 19:42 | -6.13262 | 106.66382 | 48 ft | 12 kts | 68° |
| 2026-05-07 19:42 | -6.13228 | 106.66468 | 48 ft | 15 kts | 68° |
| 2026-05-07 19:43 | -6.13186 | 106.66572 | 48 ft | 17 kts | 68° |
| 2026-05-07 19:43 | -6.13144 | 106.66676 | 48 ft | 16 kts | 68° |
| 2026-05-07 19:43 | -6.13105 | 106.66775 | 48 ft | 15 kts | 68° |
| 2026-05-07 19:43 | -6.13068 | 106.66868 | 48 ft | 14 kts | 68° |
| 2026-05-07 19:44 | -6.13034 | 106.66954 | 48 ft | 13 kts | 68° |
| 2026-05-07 19:44 | -6.13001 | 106.67035 | 48 ft | 12 kts | 68° |
| 2026-05-07 19:44 | -6.12971 | 106.67111 | 48 ft | 11 kts | 68° |
| 2026-05-07 19:44 | -6.12943 | 106.67182 | 48 ft | 11 kts | 68° |
| 2026-05-07 19:45 | -6.12916 | 106.67248 | 48 ft | 10 kts | 68° |
| 2026-05-07 19:45 | -6.12891 | 106.67311 | 48 ft | 9 kts | 68° |
| 2026-05-07 19:45 | -6.12869 | 106.67370 | 48 ft | 9 kts | 79° |
| 2026-05-07 19:45 | -6.12892 | 106.67406 | 48 ft | 3 kts | 159° |
| 2026-05-07 19:46 | -6.12895 | 106.67407 | 48 ft | 0 kts | 160° |
| 2026-05-07 19:47 | -6.12901 | 106.67409 | 48 ft | 4 kts | 163° |
| 2026-05-07 19:48 | -6.12949 | 106.67414 | 48 ft | 9 kts | 186° |
| 2026-05-07 19:48 | -6.13008 | 106.67400 | 48 ft | 8 kts | 198° |
| 2026-05-07 19:48 | -6.13054 | 106.67370 | 48 ft | 8 kts | 233° |
| 2026-05-07 19:48 | -6.13102 | 106.67264 | 48 ft | 38 kts | 248° |
| 2026-05-07 19:49 | -6.13331 | 106.66682 | 48 ft | 140 kts | 248° |
| 2026-05-07 19:49 | -6.13788 | 106.65521 | 305 ft | 202 kts | 248° |
| 2026-05-07 19:49 | -6.14316 | 106.64222 | 1718 ft | 195 kts | 246° |
| 2026-05-07 19:49 | -6.14859 | 106.62939 | 2839 ft | 208 kts | 246° |
| 2026-05-07 19:50 | -6.15448 | 106.61556 | 3611 ft | 222 kts | 245° |
| 2026-05-07 19:50 | -6.16076 | 106.60051 | 4197 ft | 246 kts | 246° |
| 2026-05-07 19:50 | -6.16743 | 106.58399 | 4916 ft | 263 kts | 246° |
| 2026-05-07 19:50 | -6.17453 | 106.56640 | 5681 ft | 279 kts | 246° |
| 2026-05-07 19:51 | -6.18208 | 106.54834 | 6702 ft | 286 kts | 246° |
| 2026-05-07 19:51 | -6.19013 | 106.52959 | 7611 ft | 292 kts | 245° |
| 2026-05-07 19:51 | -6.19806 | 106.51127 | 9000 ft | 283 kts | 245° |
| 2026-05-07 19:51 | -6.20546 | 106.49293 | 10040 ft | 286 kts | 251° |
| 2026-05-07 19:52 | -6.20881 | 106.47292 | 10837 ft | 296 kts | 268° |
| 2026-05-07 19:52 | -6.20557 | 106.45229 | 11609 ft | 305 kts | 288° |
| 2026-05-07 19:52 | -6.19541 | 106.43342 | 12419 ft | 310 kts | 308° |
| 2026-05-07 19:52 | -6.17983 | 106.41814 | 13207 ft | 317 kts | 320° |
| 2026-05-07 19:53 | -6.16232 | 106.40427 | 13992 ft | 325 kts | 324° |
| 2026-05-07 19:53 | -6.14369 | 106.39128 | 14641 ft | 336 kts | 331° |
| 2026-05-07 19:53 | -6.12165 | 106.38220 | 15102 ft | 351 kts | 346° |
| 2026-05-07 19:53 | -6.09729 | 106.37611 | 15432 ft | 371 kts | 347° |
| 2026-05-07 19:54 | -6.07155 | 106.36980 | 15808 ft | 389 kts | 348° |
| 2026-05-07 19:54 | -6.04481 | 106.36268 | 16265 ft | 404 kts | 346° |
| 2026-05-07 19:54 | -6.01746 | 106.35456 | 16832 ft | 416 kts | 344° |
| 2026-05-07 19:54 | -5.98949 | 106.34586 | 17447 ft | 423 kts | 344° |
| 2026-05-07 19:55 | -5.96111 | 106.33714 | 18125 ft | 429 kts | 345° |
| 2026-05-07 19:55 | -5.93245 | 106.32853 | 18851 ft | 432 kts | 345° |
| 2026-05-07 19:55 | -5.90348 | 106.31988 | 19557 ft | 436 kts | 345° |
| 2026-05-07 19:55 | -5.87429 | 106.31119 | 20240 ft | 439 kts | 345° |
| 2026-05-07 19:56 | -5.84487 | 106.30243 | 20723 ft | 442 kts | 345° |
| 2026-05-07 19:56 | -5.81534 | 106.29366 | 20818 ft | 443 kts | 345° |
| 2026-05-07 19:56 | -5.78578 | 106.28486 | 20817 ft | 444 kts | 345° |
| 2026-05-07 19:56 | -5.75641 | 106.27540 | 20822 ft | 444 kts | 341° |
| 2026-05-07 19:57 | -5.72794 | 106.26333 | 20817 ft | 445 kts | 336° |
| 2026-05-07 19:57 | -5.70021 | 106.24952 | 20819 ft | 445 kts | 334° |
| 2026-05-07 19:57 | -5.67300 | 106.23463 | 20818 ft | 446 kts | 332° |
| 2026-05-07 19:57 | -5.64610 | 106.21911 | 20819 ft | 446 kts | 331° |
| 2026-05-07 19:58 | -5.61929 | 106.20359 | 20818 ft | 446 kts | 332° |
| 2026-05-07 19:58 | -5.59229 | 106.18823 | 20820 ft | 446 kts | 332° |
| 2026-05-07 19:58 | -5.56527 | 106.17293 | 20819 ft | 446 kts | 332° |
| 2026-05-07 19:58 | -5.53823 | 106.15766 | 20819 ft | 446 kts | 332° |
| 2026-05-07 19:59 | -5.51118 | 106.14240 | 20820 ft | 446 kts | 332° |
| 2026-05-07 19:59 | -5.48414 | 106.12714 | 20819 ft | 446 kts | 332° |
| 2026-05-07 19:59 | -5.45709 | 106.11188 | 20820 ft | 446 kts | 332° |
| 2026-05-07 19:59 | -5.43004 | 106.09661 | 20820 ft | 446 kts | 332° |
| 2026-05-07 20:00 | -5.40298 | 106.08135 | 20820 ft | 446 kts | 332° |
| 2026-05-07 20:00 | -5.37596 | 106.06608 | 20820 ft | 446 kts | 332° |
| 2026-05-07 20:00 | -5.34891 | 106.05081 | 20821 ft | 446 kts | 332° |
| 2026-05-07 20:00 | -5.32185 | 106.03553 | 20820 ft | 446 kts | 332° |
| 2026-05-07 20:01 | -5.30391 | 106.02541 | 20820 ft | 446 kts | 332° |
| 2026-05-07 20:01 | -5.27690 | 106.01016 | 20821 ft | 446 kts | 332° |
| 2026-05-07 20:01 | -5.24064 | 105.98970 | 20821 ft | 446 kts | 332° |
| 2026-05-07 20:01 | -5.21357 | 105.97442 | 20821 ft | 446 kts | 332° |
| 2026-05-07 20:02 | -5.19562 | 105.96428 | 20822 ft | 446 kts | 332° |
| 2026-05-07 20:02 | -5.16855 | 105.94902 | 20821 ft | 446 kts | 332° |
| 2026-05-07 20:02 | -5.14155 | 105.93375 | 20821 ft | 446 kts | 332° |
| 2026-05-07 20:02 | -5.11444 | 105.91850 | 20879 ft | 449 kts | 332° |
| 2026-05-07 20:03 | -5.08720 | 105.90301 | 21492 ft | 451 kts | 332° |
| 2026-05-07 20:03 | -5.05982 | 105.88738 | 22127 ft | 454 kts | 332° |
| 2026-05-07 20:03 | -5.03227 | 105.87165 | 22710 ft | 458 kts | 332° |
| 2026-05-07 20:03 | -5.00451 | 105.85582 | 23292 ft | 460 kts | 332° |
| 2026-05-07 20:04 | -4.97656 | 105.83988 | 23840 ft | 464 kts | 332° |
| 2026-05-07 20:04 | -4.94840 | 105.82384 | 24348 ft | 467 kts | 332° |
| 2026-05-07 20:04 | -4.91999 | 105.80764 | 24815 ft | 471 kts | 332° |
| 2026-05-07 20:04 | -4.89136 | 105.79133 | 25275 ft | 475 kts | 332° |
| 2026-05-07 20:05 | -4.86248 | 105.77488 | 25731 ft | 479 kts | 332° |
| 2026-05-07 20:05 | -4.83344 | 105.75833 | 26171 ft | 483 kts | 332° |
| 2026-05-07 20:05 | -4.80412 | 105.74161 | 26592 ft | 487 kts | 332° |
| 2026-05-07 20:05 | -4.77457 | 105.72476 | 27027 ft | 490 kts | 332° |
| 2026-05-07 20:06 | -4.74482 | 105.70782 | 27444 ft | 494 kts | 332° |
| 2026-05-07 20:06 | -4.71486 | 105.69075 | 27853 ft | 497 kts | 332° |
| 2026-05-07 20:06 | -4.68470 | 105.67357 | 28248 ft | 500 kts | 332° |
| 2026-05-07 20:06 | -4.65474 | 105.65651 | 28614 ft | 503 kts | 332° |
| 2026-05-07 20:07 | -4.62379 | 105.63889 | 28990 ft | 506 kts | 332° |
| 2026-05-07 20:07 | -4.59306 | 105.62138 | 29342 ft | 510 kts | 332° |
| 2026-05-07 20:07 | -4.56255 | 105.60402 | 29678 ft | 513 kts | 332° |
| 2026-05-07 20:07 | -4.53106 | 105.58609 | 30113 ft | 513 kts | 332° |
| 2026-05-07 20:08 | -4.50010 | 105.56847 | 30720 ft | 510 kts | 332° |
| 2026-05-07 20:08 | -4.46937 | 105.55098 | 31296 ft | 508 kts | 332° |
| 2026-05-07 20:08 | -4.43866 | 105.53349 | 31842 ft | 507 kts | 332° |
| 2026-05-07 20:08 | -4.40803 | 105.51608 | 32418 ft | 505 kts | 332° |
| 2026-05-07 20:09 | -4.37752 | 105.49871 | 32977 ft | 504 kts | 332° |
| 2026-05-07 20:09 | -4.34710 | 105.48141 | 33534 ft | 502 kts | 332° |
| 2026-05-07 20:09 | -4.31708 | 105.46434 | 33798 ft | 503 kts | 332° |
| 2026-05-07 20:10 | -4.25628 | 105.42975 | 33818 ft | 502 kts | 332° |
| 2026-05-07 20:10 | -4.19567 | 105.39528 | 33817 ft | 501 kts | 332° |
| 2026-05-07 20:11 | -4.13499 | 105.36076 | 33817 ft | 501 kts | 332° |
| 2026-05-07 20:11 | -4.07433 | 105.32628 | 33817 ft | 501 kts | 332° |
| 2026-05-07 20:12 | -4.01366 | 105.29180 | 33817 ft | 501 kts | 332° |
| 2026-05-07 20:12 | -3.95301 | 105.25734 | 33817 ft | 501 kts | 332° |
| 2026-05-07 20:13 | -3.89232 | 105.22291 | 33817 ft | 501 kts | 332° |
| 2026-05-07 20:13 | -3.83152 | 105.18875 | 33817 ft | 501 kts | 332° |
| 2026-05-07 20:14 | -3.77083 | 105.15462 | 33817 ft | 501 kts | 332° |
| 2026-05-07 20:14 | -3.71012 | 105.12046 | 33817 ft | 500 kts | 332° |
| 2026-05-07 20:15 | -3.64943 | 105.08631 | 33817 ft | 500 kts | 332° |
| 2026-05-07 20:15 | -3.58877 | 105.05216 | 33817 ft | 500 kts | 332° |
| 2026-05-07 20:16 | -3.52820 | 105.01806 | 33817 ft | 500 kts | 332° |
| 2026-05-07 20:16 | -3.46757 | 104.98395 | 33817 ft | 500 kts | 332° |
| 2026-05-07 20:17 | -3.40697 | 104.94985 | 33820 ft | 499 kts | 332° |
| 2026-05-07 20:17 | -3.34638 | 104.91577 | 33819 ft | 499 kts | 332° |
| 2026-05-07 20:18 | -3.28581 | 104.88170 | 33819 ft | 499 kts | 332° |
| 2026-05-07 20:18 | -3.22564 | 104.84787 | 33818 ft | 499 kts | 332° |
| 2026-05-07 20:19 | -3.16475 | 104.81363 | 33818 ft | 499 kts | 332° |
| 2026-05-07 20:19 | -3.10420 | 104.77957 | 33817 ft | 499 kts | 332° |
| 2026-05-07 20:20 | -3.04364 | 104.74553 | 33817 ft | 499 kts | 332° |
| 2026-05-07 20:20 | -2.98307 | 104.71149 | 33817 ft | 499 kts | 331° |
| 2026-05-07 20:21 | -2.92290 | 104.67769 | 33817 ft | 499 kts | 332° |
| 2026-05-07 20:21 | -2.85920 | 104.65066 | 33818 ft | 498 kts | 345° |
| 2026-05-07 20:22 | -2.79176 | 104.63513 | 33817 ft | 497 kts | 350° |
| 2026-05-07 20:22 | -2.72363 | 104.62302 | 33816 ft | 497 kts | 351° |
| 2026-05-07 20:23 | -2.65554 | 104.61062 | 33817 ft | 497 kts | 350° |
| 2026-05-07 20:23 | -2.58747 | 104.59792 | 33816 ft | 497 kts | 350° |
| 2026-05-07 20:24 | -2.51942 | 104.58511 | 33817 ft | 497 kts | 350° |
| 2026-05-07 20:24 | -2.45145 | 104.57230 | 33817 ft | 498 kts | 350° |
| 2026-05-07 20:25 | -2.38335 | 104.55945 | 33817 ft | 498 kts | 350° |
| 2026-05-07 20:25 | -2.31523 | 104.54660 | 33817 ft | 498 kts | 350° |
| 2026-05-07 20:26 | -2.24712 | 104.53375 | 33817 ft | 498 kts | 350° |
| 2026-05-07 20:26 | -2.17900 | 104.52089 | 33817 ft | 498 kts | 350° |
| 2026-05-07 20:27 | -2.11086 | 104.50804 | 33817 ft | 498 kts | 349° |
| 2026-05-07 20:27 | -2.04277 | 104.49519 | 33817 ft | 498 kts | 349° |
| 2026-05-07 20:28 | -1.97460 | 104.48234 | 33817 ft | 498 kts | 349° |
| 2026-05-07 20:28 | -1.90631 | 104.46946 | 33817 ft | 499 kts | 349° |
| 2026-05-07 20:29 | -1.83816 | 104.45660 | 33817 ft | 499 kts | 349° |
| 2026-05-07 20:29 | -1.76993 | 104.44374 | 33817 ft | 499 kts | 349° |
| 2026-05-07 20:30 | -1.70170 | 104.43087 | 33817 ft | 499 kts | 349° |
| 2026-05-07 20:30 | -1.63346 | 104.41801 | 33817 ft | 499 kts | 349° |
| 2026-05-07 20:31 | -1.56523 | 104.40514 | 33817 ft | 499 kts | 350° |
| 2026-05-07 20:31 | -1.49707 | 104.39229 | 33817 ft | 499 kts | 350° |
| 2026-05-07 20:32 | -1.42875 | 104.37941 | 33817 ft | 499 kts | 350° |
| 2026-05-07 20:32 | -1.36050 | 104.36655 | 33817 ft | 499 kts | 350° |
| 2026-05-07 20:33 | -1.29231 | 104.35369 | 33817 ft | 499 kts | 350° |
| 2026-05-07 20:33 | -1.22403 | 104.34081 | 33818 ft | 499 kts | 350° |
| 2026-05-07 20:34 | -1.15616 | 104.32803 | 33817 ft | 499 kts | 350° |
| 2026-05-07 20:34 | -1.08793 | 104.31517 | 33817 ft | 499 kts | 350° |
| 2026-05-07 20:35 | -1.01961 | 104.30230 | 33817 ft | 500 kts | 350° |
| 2026-05-07 20:35 | -0.95127 | 104.28941 | 33817 ft | 500 kts | 350° |
| 2026-05-07 20:36 | -0.88290 | 104.27653 | 33817 ft | 500 kts | 350° |
| 2026-05-07 20:36 | -0.81452 | 104.26365 | 33817 ft | 500 kts | 350° |
| 2026-05-07 20:37 | -0.74621 | 104.25077 | 33819 ft | 500 kts | 350° |
| 2026-05-07 20:37 | -0.67780 | 104.23788 | 33819 ft | 500 kts | 350° |
| 2026-05-07 20:38 | -0.60936 | 104.22499 | 33815 ft | 500 kts | 350° |
| 2026-05-07 20:38 | -0.57515 | 104.21855 | 33512 ft | 500 kts | 350° |
| 2026-05-07 20:38 | -0.54101 | 104.21200 | 32882 ft | 498 kts | 350° |
| 2026-05-07 20:38 | -0.50708 | 104.20522 | 32215 ft | 497 kts | 349° |
| 2026-05-07 20:39 | -0.47320 | 104.19843 | 31536 ft | 496 kts | 349° |
| 2026-05-07 20:39 | -0.43936 | 104.19168 | 30850 ft | 495 kts | 349° |
| 2026-05-07 20:39 | -0.40562 | 104.18484 | 30273 ft | 496 kts | 349° |
| 2026-05-07 20:39 | -0.37157 | 104.17799 | 29691 ft | 499 kts | 349° |
| 2026-05-07 20:40 | -0.33747 | 104.17118 | 29032 ft | 501 kts | 349° |
| 2026-05-07 20:40 | -0.30344 | 104.16440 | 28423 ft | 498 kts | 350° |
| 2026-05-07 20:40 | -0.26939 | 104.15782 | 27933 ft | 495 kts | 349° |
| 2026-05-07 20:40 | -0.23582 | 104.15117 | 27294 ft | 491 kts | 350° |
| 2026-05-07 20:41 | -0.20241 | 104.14453 | 26656 ft | 487 kts | 350° |
| 2026-05-07 20:41 | -0.16947 | 104.13798 | 26062 ft | 478 kts | 350° |
| 2026-05-07 20:41 | -0.13710 | 104.13154 | 25475 ft | 470 kts | 350° |
| 2026-05-07 20:41 | -0.10527 | 104.12521 | 24896 ft | 463 kts | 351° |
| 2026-05-07 20:42 | -0.07395 | 104.11899 | 24329 ft | 455 kts | 351° |
| 2026-05-07 20:42 | -0.04353 | 104.11294 | 23771 ft | 448 kts | 351° |
| 2026-05-07 20:42 | -0.01317 | 104.10691 | 23213 ft | 442 kts | 351° |
| 2026-05-07 20:42 | 0.01668 | 104.10096 | 22800 ft | 432 kts | 351° |
| 2026-05-07 20:43 | 0.04590 | 104.09516 | 22312 ft | 426 kts | 351° |
| 2026-05-07 20:43 | 0.07490 | 104.08940 | 21786 ft | 423 kts | 351° |
| 2026-05-07 20:43 | 0.10336 | 104.08374 | 21633 ft | 411 kts | 351° |
| 2026-05-07 20:43 | 0.13088 | 104.07827 | 21538 ft | 396 kts | 351° |
| 2026-05-07 20:44 | 0.15736 | 104.07299 | 21442 ft | 381 kts | 351° |
| 2026-05-07 20:44 | 0.18288 | 104.06792 | 21344 ft | 367 kts | 351° |
| 2026-05-07 20:44 | 0.20746 | 104.06304 | 21249 ft | 354 kts | 351° |
| 2026-05-07 20:44 | 0.23117 | 104.05832 | 21156 ft | 341 kts | 351° |
| 2026-05-07 20:45 | 0.25402 | 104.05377 | 21075 ft | 330 kts | 351° |
| 2026-05-07 20:45 | 0.27636 | 104.04933 | 20969 ft | 325 kts | 351° |
| 2026-05-07 20:45 | 0.29884 | 104.04485 | 20671 ft | 338 kts | 351° |
| 2026-05-07 20:45 | 0.32294 | 104.04010 | 20401 ft | 363 kts | 351° |
| 2026-05-07 20:46 | 0.34787 | 104.03514 | 20144 ft | 366 kts | 351° |
| 2026-05-07 20:46 | 0.37279 | 104.03020 | 19779 ft | 365 kts | 351° |
| 2026-05-07 20:46 | 0.39741 | 104.02532 | 19397 ft | 358 kts | 351° |
| 2026-05-07 20:46 | 0.42146 | 104.02051 | 19074 ft | 347 kts | 351° |
| 2026-05-07 20:47 | 0.44486 | 104.01589 | 18818 ft | 338 kts | 351° |
| 2026-05-07 20:47 | 0.46772 | 104.01136 | 18492 ft | 333 kts | 351° |
| 2026-05-07 20:47 | 0.48272 | 104.00841 | 18360 ft | 331 kts | 351° |
| 2026-05-07 20:47 | 0.50556 | 104.00386 | 18112 ft | 338 kts | 351° |
| 2026-05-07 20:48 | 0.53652 | 103.99777 | 17679 ft | 339 kts | 351° |
| 2026-05-07 20:48 | 0.55180 | 103.99474 | 17518 ft | 336 kts | 351° |
| 2026-05-07 20:48 | 0.57457 | 103.99022 | 17212 ft | 333 kts | 350° |
| 2026-05-07 20:48 | 0.59719 | 103.98573 | 16915 ft | 330 kts | 350° |
| 2026-05-07 20:49 | 0.61972 | 103.98127 | 16625 ft | 330 kts | 350° |
| 2026-05-07 20:49 | 0.64218 | 103.97681 | 16338 ft | 328 kts | 350° |
| 2026-05-07 20:49 | 0.66454 | 103.97238 | 16054 ft | 327 kts | 350° |
| 2026-05-07 20:49 | 0.68680 | 103.96796 | 15773 ft | 326 kts | 350° |
| 2026-05-07 20:50 | 0.70907 | 103.96433 | 15486 ft | 323 kts | 358° |
| 2026-05-07 20:50 | 0.73134 | 103.96578 | 15222 ft | 321 kts | 11° |
| 2026-05-07 20:50 | 0.75289 | 103.97131 | 14931 ft | 319 kts | 18° |
| 2026-05-07 20:50 | 0.77379 | 103.97850 | 14649 ft | 316 kts | 21° |
| 2026-05-07 20:51 | 0.79416 | 103.98671 | 14373 ft | 315 kts | 24° |
| 2026-05-07 20:51 | 0.81425 | 103.99539 | 14098 ft | 314 kts | 24° |
| 2026-05-07 20:51 | 0.83422 | 104.00409 | 13827 ft | 313 kts | 24° |
| 2026-05-07 20:51 | 0.85419 | 104.01270 | 13557 ft | 312 kts | 24° |
| 2026-05-07 20:52 | 0.87415 | 104.02123 | 13288 ft | 311 kts | 24° |
| 2026-05-07 20:52 | 0.89401 | 104.02968 | 13020 ft | 310 kts | 24° |
| 2026-05-07 20:52 | 0.91381 | 104.03808 | 12754 ft | 309 kts | 24° |
| 2026-05-07 20:52 | 0.93355 | 104.04644 | 12489 ft | 307 kts | 24° |
| 2026-05-07 20:53 | 0.95320 | 104.05476 | 12226 ft | 306 kts | 24° |
| 2026-05-07 20:53 | 0.97282 | 104.06306 | 11958 ft | 306 kts | 24° |
| 2026-05-07 20:53 | 0.99238 | 104.07133 | 11699 ft | 305 kts | 24° |
| 2026-05-07 20:53 | 1.01183 | 104.07957 | 11434 ft | 304 kts | 23° |
| 2026-05-07 20:54 | 1.03130 | 104.08781 | 11175 ft | 304 kts | 23° |
| 2026-05-07 20:54 | 1.05072 | 104.09602 | 10913 ft | 303 kts | 23° |
| 2026-05-07 20:54 | 1.07010 | 104.10422 | 10653 ft | 302 kts | 23° |
| 2026-05-07 20:54 | 1.08946 | 104.11241 | 10393 ft | 301 kts | 23° |
| 2026-05-07 20:55 | 1.10866 | 104.12052 | 10133 ft | 299 kts | 23° |
| 2026-05-07 20:55 | 1.12770 | 104.12858 | 9877 ft | 295 kts | 23° |
| 2026-05-07 20:55 | 1.14652 | 104.13657 | 9624 ft | 292 kts | 23° |
| 2026-05-07 20:55 | 1.16512 | 104.14450 | 9373 ft | 289 kts | 23° |
| 2026-05-07 20:56 | 1.18328 | 104.15223 | 9129 ft | 286 kts | 23° |
| 2026-05-07 20:56 | 1.20154 | 104.16002 | 8883 ft | 285 kts | 23° |
| 2026-05-07 20:56 | 1.21979 | 104.16780 | 8639 ft | 285 kts | 23° |
| 2026-05-07 20:56 | 1.23796 | 104.17555 | 8392 ft | 283 kts | 23° |
| 2026-05-07 20:57 | 1.25604 | 104.18326 | 8149 ft | 282 kts | 23° |
| 2026-05-07 20:57 | 1.27401 | 104.19092 | 7907 ft | 281 kts | 23° |
| 2026-05-07 20:57 | 1.29203 | 104.19860 | 7665 ft | 281 kts | 23° |
| 2026-05-07 20:57 | 1.31005 | 104.20588 | 7417 ft | 279 kts | 18° |
| 2026-05-07 20:58 | 1.32915 | 104.20884 | 7184 ft | 278 kts | 2° |
| 2026-05-07 20:58 | 1.34846 | 104.20777 | 6939 ft | 278 kts | 355° |
| 2026-05-07 20:58 | 1.36756 | 104.20519 | 6690 ft | 276 kts | 351° |
| 2026-05-07 20:58 | 1.38637 | 104.20151 | 6449 ft | 275 kts | 348° |
| 2026-05-07 20:59 | 1.40507 | 104.19729 | 6208 ft | 275 kts | 347° |
| 2026-05-07 20:59 | 1.42371 | 104.19307 | 5969 ft | 274 kts | 347° |
| 2026-05-07 20:59 | 1.44226 | 104.18899 | 5731 ft | 272 kts | 348° |
| 2026-05-07 20:59 | 1.46068 | 104.18501 | 5497 ft | 269 kts | 348° |
| 2026-05-07 21:00 | 1.47890 | 104.18109 | 5264 ft | 267 kts | 348° |
| 2026-05-07 21:00 | 1.49694 | 104.17722 | 5036 ft | 264 kts | 348° |
| 2026-05-07 21:00 | 1.51424 | 104.17186 | 4817 ft | 260 kts | 336° |
| 2026-05-07 21:00 | 1.53002 | 104.16330 | 4635 ft | 254 kts | 329° |
| 2026-05-07 21:01 | 1.54441 | 104.15367 | 4577 ft | 244 kts | 324° |
| 2026-05-07 21:01 | 1.55733 | 104.14339 | 4524 ft | 232 kts | 320° |
| 2026-05-07 21:01 | 1.56926 | 104.13313 | 4475 ft | 221 kts | 319° |
| 2026-05-07 21:01 | 1.58080 | 104.12325 | 4484 ft | 217 kts | 319° |
| 2026-05-07 21:02 | 1.59154 | 104.11299 | 4482 ft | 211 kts | 304° |
| 2026-05-07 21:02 | 1.59569 | 104.09934 | 4519 ft | 209 kts | 270° |
| 2026-05-07 21:02 | 1.59090 | 104.08583 | 4498 ft | 210 kts | 234° |
| 2026-05-07 21:02 | 1.57911 | 104.07774 | 4491 ft | 207 kts | 200° |
| 2026-05-07 21:03 | 1.56500 | 104.07531 | 4269 ft | 205 kts | 189° |
| 2026-05-07 21:03 | 1.55103 | 104.07271 | 3980 ft | 203 kts | 192° |
| 2026-05-07 21:03 | 1.53783 | 104.06924 | 3713 ft | 190 kts | 195° |
| 2026-05-07 21:03 | 1.52566 | 104.06552 | 3453 ft | 176 kts | 195° |
| 2026-05-07 21:04 | 1.51466 | 104.06207 | 3223 ft | 155 kts | 196° |
| 2026-05-07 21:04 | 1.50470 | 104.05855 | 3028 ft | 149 kts | 198° |
| 2026-05-07 21:04 | 1.49509 | 104.05480 | 2838 ft | 148 kts | 199° |
| 2026-05-07 21:04 | 1.48548 | 104.05087 | 2641 ft | 150 kts | 200° |
| 2026-05-07 21:05 | 1.47583 | 104.04686 | 2442 ft | 150 kts | 200° |
| 2026-05-07 21:05 | 1.46622 | 104.04283 | 2245 ft | 150 kts | 200° |
| 2026-05-07 21:05 | 1.45662 | 104.03880 | 2035 ft | 148 kts | 201° |
| 2026-05-07 21:05 | 1.44707 | 104.03477 | 1847 ft | 150 kts | 201° |
| 2026-05-07 21:06 | 1.43745 | 104.03073 | 1640 ft | 149 kts | 201° |
| 2026-05-07 21:06 | 1.42791 | 104.02671 | 1444 ft | 149 kts | 201° |
| 2026-05-07 21:06 | 1.41835 | 104.02268 | 1246 ft | 149 kts | 202° |
| 2026-05-07 21:06 | 1.40874 | 104.01863 | 1047 ft | 150 kts | 202° |
| 2026-05-07 21:07 | 1.39909 | 104.01456 | 848 ft | 150 kts | 202° |
| 2026-05-07 21:07 | 1.38949 | 104.01052 | 648 ft | 150 kts | 202° |
| 2026-05-07 21:07 | 1.37987 | 104.00646 | 448 ft | 150 kts | 203° |
| 2026-05-07 21:07 | 1.37033 | 104.00243 | 251 ft | 149 kts | 204° |
| 2026-05-07 21:08 | 1.36097 | 103.99850 | 95 ft | 146 kts | 203° |
| 2026-05-07 21:08 | 1.35203 | 103.99474 | 39 ft | 127 kts | 203° |
| 2026-05-07 21:08 | 1.34519 | 103.99181 | 36 ft | 82 kts | 202° |
| 2026-05-07 21:08 | 1.34158 | 103.99032 | 36 ft | 35 kts | 203° |
| 2026-05-07 21:09 | 1.33938 | 103.98939 | 36 ft | 37 kts | 203° |
| 2026-05-07 21:09 | 1.33729 | 103.98850 | 36 ft | 25 kts | 203° |
| 2026-05-07 21:09 | 1.33602 | 103.98796 | 36 ft | 13 kts | 205° |
| 2026-05-07 21:09 | 1.33576 | 103.98724 | 36 ft | 12 kts | 285° |
| 2026-05-07 21:10 | 1.33606 | 103.98647 | 36 ft | 12 kts | 298° |
| 2026-05-07 21:10 | 1.33677 | 103.98637 | 36 ft | 11 kts | 18° |
| 2026-05-07 21:10 | 1.33745 | 103.98665 | 36 ft | 10 kts | 22° |
| 2026-05-07 21:10 | 1.33809 | 103.98692 | 36 ft | 10 kts | 22° |
| 2026-05-07 21:11 | 1.33870 | 103.98717 | 36 ft | 9 kts | 22° |
| 2026-05-07 21:11 | 1.33929 | 103.98741 | 36 ft | 10 kts | 22° |
| 2026-05-07 21:11 | 1.34097 | 103.98813 | 36 ft | 15 kts | 23° |
| 2026-05-07 21:12 | 1.34193 | 103.98854 | 36 ft | 14 kts | 22° |
| 2026-05-07 21:12 | 1.34280 | 103.98890 | 36 ft | 11 kts | 22° |
| 2026-05-07 21:12 | 1.34342 | 103.98859 | 36 ft | 11 kts | 299° |
| 2026-05-07 21:12 | 1.34372 | 103.98793 | 36 ft | 10 kts | 291° |
| 2026-05-07 21:13 | 1.34398 | 103.98730 | 36 ft | 10 kts | 293° |
| 2026-05-07 21:13 | 1.34415 | 103.98669 | 36 ft | 9 kts | 257° |
| 2026-05-07 21:13 | 1.34372 | 103.98627 | 36 ft | 9 kts | 222° |
| 2026-05-07 21:13 | 1.34359 | 103.98572 | 36 ft | 8 kts | 256° |
| 2026-05-07 21:14 | 1.34317 | 103.98539 | 36 ft | 8 kts | 204° |
| 2026-05-07 21:14 | 1.34298 | 103.98531 | 36 ft | 0 kts | 204° |